Time;durP1;ratioP1;P1;durP2;ratioP2;P2;SDS_P1;SDS_P2;PMS_P1;PMS_P2;Temp;Humidity;BMP_temperature;BMP_pressure;BME280_temperature;BME280_humidity;BME280_pressure;Samples;Min_cycle;Max_cycle;Signal;HPM_P1;HPM_P2
2022/07/05 00:01:01;;;;;;;6.85;3.25;;;;;;;;;;5034761;28;20044;-75
2022/07/05 00:03:28;;;;;;;4.38;3.00;;;;;;;;;;5034868;28;20025;-75
2022/07/05 00:05:54;;;;;;;4.78;3.22;;;;;;;;;;5033172;28;20467;-74
2022/07/05 00:08:20;;;;;;;4.72;3.50;;;;;;;;;;5034720;28;20018;-74
2022/07/05 00:10:47;;;;;;;5.80;3.35;;;;;;;;;;5034601;28;20057;-75
2022/07/05 00:13:13;;;;;;;7.32;4.10;;;;;;;;;;5034657;28;20389;-75
2022/07/05 00:15:39;;;;;;;6.85;4.00;;;;;;;;;;5034353;28;20045;-75
2022/07/05 00:18:05;;;;;;;7.93;3.85;;;;;;;;;;5021716;28;20041;-75
2022/07/05 00:20:31;;;;;;;7.72;3.70;;;;;;;;;;5014593;28;20061;-75
2022/07/05 00:22:57;;;;;;;5.25;4.25;;;;;;;;;;5014768;28;20030;-74
2022/07/05 00:25:23;;;;;;;8.95;4.35;;;;;;;;;;5014425;28;20030;-74
2022/07/05 00:27:49;;;;;;;6.28;4.22;;;;;;;;;;5014518;28;20046;-74
2022/07/05 00:30:15;;;;;;;5.38;3.50;;;;;;;;;;5014397;28;20452;-75
2022/07/05 00:32:41;;;;;;;9.23;4.28;;;;;;;;;;5014480;28;20460;-75
2022/07/05 00:35:08;;;;;;;7.47;4.20;;;;;;;;;;5013737;28;20034;-74
2022/07/05 00:37:34;;;;;;;7.40;3.92;;;;;;;;;;5014429;28;20026;-74
2022/07/05 00:40:01;;;;;;;6.80;3.67;;;;;;;;;;5014277;28;20029;-75
2022/07/05 00:42:27;;;;;;;6.70;4.25;;;;;;;;;;5014348;28;20030;-75
2022/07/05 00:44:53;;;;;;;9.98;4.28;;;;;;;;;;5014048;28;20060;-75
2022/07/05 00:47:19;;;;;;;8.55;4.82;;;;;;;;;;5014360;28;20461;-75
2022/07/05 00:49:45;;;;;;;6.30;4.18;;;;;;;;;;5033809;28;20025;-75
2022/07/05 00:52:12;;;;;;;6.75;4.32;;;;;;;;;;5033824;28;20120;-75
2022/07/05 00:54:39;;;;;;;5.88;3.83;;;;;;;;;;5033902;28;20026;-75
2022/07/05 00:57:05;;;;;;;14.27;4.40;;;;;;;;;;5033887;28;20104;-75
2022/07/05 00:59:31;;;;;;;9.85;4.10;;;;;;;;;;5033752;28;20043;-75
2022/07/05 01:01:58;;;;;;;5.85;3.90;;;;;;;;;;5033504;28;20040;-75
2022/07/05 01:04:24;;;;;;;7.70;4.95;;;;;;;;;;5033733;28;20112;-74
2022/07/05 01:06:52;;;;;;;7.22;4.70;;;;;;;;;;5032051;28;20037;-74
2022/07/05 01:09:19;;;;;;;10.45;4.53;;;;;;;;;;5033465;28;20030;-75
2022/07/05 01:11:46;;;;;;;7.82;4.35;;;;;;;;;;5033333;28;20032;-74
2022/07/05 01:14:13;;;;;;;8.25;4.93;;;;;;;;;;5033518;28;20411;-75
2022/07/05 01:16:40;;;;;;;7.70;4.43;;;;;;;;;;5032183;28;20106;-75
2022/07/05 01:19:06;;;;;;;6.13;4.43;;;;;;;;;;5013619;28;20033;-75
2022/07/05 01:21:34;;;;;;;12.07;6.15;;;;;;;;;;5011902;28;20034;-75
2022/07/05 01:24:00;;;;;;;10.23;6.97;;;;;;;;;;5013495;28;20026;-75
2022/07/05 01:26:26;;;;;;;9.25;5.63;;;;;;;;;;5013542;28;20324;-75
2022/07/05 01:28:52;;;;;;;9.45;5.40;;;;;;;;;;5013148;28;20054;-75
2022/07/05 01:31:18;;;;;;;7.90;5.05;;;;;;;;;;5013215;28;20110;-75
2022/07/05 01:33:44;;;;;;;7.82;4.97;;;;;;;;;;5013377;28;20026;-75
2022/07/05 01:36:12;;;;;;;9.13;5.22;;;;;;;;;;5013007;28;20030;-75
2022/07/05 01:38:38;;;;;;;8.88;6.25;;;;;;;;;;5013154;28;20026;-74
2022/07/05 01:41:04;;;;;;;7.30;5.32;;;;;;;;;;5012973;28;20030;-75
2022/07/05 01:43:30;;;;;;;11.23;7.13;;;;;;;;;;5013213;28;20032;-75
2022/07/05 01:45:58;;;;;;;9.93;6.95;;;;;;;;;;5011909;28;20037;-75
2022/07/05 01:48:25;;;;;;;11.68;7.20;;;;;;;;;;5022063;28;20032;-74
2022/07/05 01:50:54;;;;;;;14.70;7.72;;;;;;;;;;5032462;28;20029;-75
2022/07/05 01:53:23;;;;;;;15.07;6.65;;;;;;;;;;5032695;28;20040;-75
2022/07/05 01:55:49;;;;;;;12.00;6.80;;;;;;;;;;5032425;28;20041;-75
2022/07/05 01:58:16;;;;;;;9.98;6.10;;;;;;;;;;5032673;28;20353;-75
2022/07/05 02:00:46;;;;;;;11.10;7.32;;;;;;;;;;5032251;28;20476;-75
2022/07/05 02:03:13;;;;;;;13.57;7.47;;;;;;;;;;5032559;28;20021;-75
2022/07/05 02:05:39;;;;;;;10.40;6.85;;;;;;;;;;5032195;28;20045;-75
2022/07/05 02:08:05;;;;;;;11.00;6.78;;;;;;;;;;5032364;28;20045;-74
2022/07/05 02:10:31;;;;;;;11.85;7.45;;;;;;;;;;5003684;28;20065;-75
2022/07/05 02:12:57;;;;;;;11.20;8.15;;;;;;;;;;4993090;28;20381;-75
2022/07/05 02:15:23;;;;;;;9.10;6.63;;;;;;;;;;4992838;28;20424;-75
2022/07/05 02:17:49;;;;;;;12.60;7.05;;;;;;;;;;5003046;28;20097;-75
2022/07/05 02:20:15;;;;;;;9.70;6.53;;;;;;;;;;5012303;28;20034;-75
2022/07/05 02:22:42;;;;;;;11.40;7.72;;;;;;;;;;5012482;28;20030;-75
2022/07/05 02:25:08;;;;;;;10.27;6.85;;;;;;;;;;5012255;28;20033;-75
2022/07/05 02:27:34;;;;;;;14.82;6.57;;;;;;;;;;5012563;28;20140;-74
2022/07/05 02:30:01;;;;;;;10.25;6.22;;;;;;;;;;5012243;28;20029;-75
2022/07/05 02:32:27;;;;;;;10.43;7.10;;;;;;;;;;5012299;28;20044;-75
2022/07/05 02:34:53;;;;;;;8.52;6.15;;;;;;;;;;5012209;28;20465;-75
2022/07/05 02:37:19;;;;;;;10.20;6.53;;;;;;;;;;5012199;28;20041;-75
2022/07/05 02:39:45;;;;;;;8.32;6.70;;;;;;;;;;5010797;28;20030;-75
2022/07/05 02:42:11;;;;;;;9.13;5.85;;;;;;;;;;5012371;28;20030;-75
2022/07/05 02:44:38;;;;;;;7.78;6.15;;;;;;;;;;5011970;28;20545;-75
2022/07/05 02:47:04;;;;;;;11.05;6.78;;;;;;;;;;5012078;28;20314;-75
2022/07/05 02:49:30;;;;;;;20.60;6.80;;;;;;;;;;5030060;28;20022;-75
2022/07/05 02:51:56;;;;;;;10.25;6.80;;;;;;;;;;5010839;28;20022;-75
2022/07/05 02:54:22;;;;;;;9.82;7.13;;;;;;;;;;5002864;28;20018;-75
2022/07/05 02:56:48;;;;;;;11.50;6.90;;;;;;;;;;5000617;28;20380;-75
2022/07/05 02:59:14;;;;;;;10.13;7.50;;;;;;;;;;5001950;28;20106;-75
2022/07/05 03:01:40;;;;;;;14.57;8.43;;;;;;;;;;5002407;28;20023;-75
2022/07/05 03:04:06;;;;;;;10.15;8.07;;;;;;;;;;5000708;28;20034;-75
2022/07/05 03:06:32;;;;;;;11.75;7.95;;;;;;;;;;5001889;28;20018;-75
2022/07/05 03:08:59;;;;;;;8.77;6.82;;;;;;;;;;5000889;28;20068;-75
2022/07/05 03:11:25;;;;;;;10.68;7.13;;;;;;;;;;5000619;28;20425;-75
2022/07/05 03:13:51;;;;;;;12.30;8.00;;;;;;;;;;5002296;28;20121;-75
2022/07/05 03:16:17;;;;;;;16.08;7.75;;;;;;;;;;5001792;28;20038;-75
2022/07/05 03:18:43;;;;;;;8.98;6.32;;;;;;;;;;5001677;28;20088;-75
2022/07/05 03:21:09;;;;;;;8.80;6.40;;;;;;;;;;5000592;28;20054;-75
2022/07/05 03:23:35;;;;;;;9.38;6.70;;;;;;;;;;5001732;28;20022;-75
2022/07/05 03:26:01;;;;;;;11.13;7.38;;;;;;;;;;5002376;28;20026;-75
2022/07/05 03:28:27;;;;;;;9.80;7.25;;;;;;;;;;5000398;28;20126;-75
2022/07/05 03:30:53;;;;;;;8.80;6.15;;;;;;;;;;5001700;28;20026;-75
2022/07/05 03:33:19;;;;;;;10.60;7.60;;;;;;;;;;5001960;28;20023;-75
2022/07/05 03:35:45;;;;;;;9.85;7.38;;;;;;;;;;5000282;28;20149;-75
2022/07/05 03:38:11;;;;;;;11.18;6.75;;;;;;;;;;5001922;28;20049;-75
2022/07/05 03:40:37;;;;;;;9.63;6.38;;;;;;;;;;5001683;28;20385;-75
2022/07/05 03:43:03;;;;;;;12.82;6.63;;;;;;;;;;4994927;28;20034;-75
2022/07/05 03:45:30;;;;;;;11.05;6.57;;;;;;;;;;5002142;28;20084;-75
2022/07/05 03:47:59;;;;;;;9.23;6.63;;;;;;;;;;5001770;28;20093;-75
2022/07/05 03:50:26;;;;;;;11.88;8.43;;;;;;;;;;5008532;28;20092;-75
2022/07/05 03:52:52;;;;;;;12.27;6.82;;;;;;;;;;5011527;28;20030;-75
2022/07/05 03:55:18;;;;;;;12.68;6.05;;;;;;;;;;5011298;28;20033;-75
2022/07/05 03:57:44;;;;;;;8.60;6.80;;;;;;;;;;5011397;28;20057;-75
2022/07/05 04:00:10;;;;;;;9.30;5.90;;;;;;;;;;5011200;28;20018;-75
2022/07/05 04:02:36;;;;;;;12.10;7.03;;;;;;;;;;5011307;28;20449;-75
2022/07/05 04:05:02;;;;;;;8.75;7.13;;;;;;;;;;5011103;28;20144;-75
2022/07/05 04:07:28;;;;;;;13.40;6.45;;;;;;;;;;5011304;28;20022;-75
2022/07/05 04:09:54;;;;;;;14.25;6.45;;;;;;;;;;5013406;28;20041;-75
2022/07/05 04:12:21;;;;;;;11.55;7.93;;;;;;;;;;5014858;28;20018;-75
2022/07/05 04:14:47;;;;;;;10.35;6.60;;;;;;;;;;5019351;28;20014;-75
2022/07/05 04:17:13;;;;;;;9.77;6.03;;;;;;;;;;5028696;28;20029;-75
2022/07/05 04:19:39;;;;;;;9.73;6.72;;;;;;;;;;5014349;28;20041;-76
2022/07/05 04:22:05;;;;;;;11.68;7.20;;;;;;;;;;5014595;28;20037;-75
2022/07/05 04:24:31;;;;;;;14.82;6.43;;;;;;;;;;5014419;28;20030;-75
2022/07/05 04:26:57;;;;;;;9.10;5.75;;;;;;;;;;5014725;28;20037;-75
2022/07/05 04:29:23;;;;;;;11.55;5.88;;;;;;;;;;5014276;28;20061;-75
2022/07/05 04:31:49;;;;;;;10.40;5.65;;;;;;;;;;5014337;28;20026;-75
2022/07/05 04:34:15;;;;;;;7.18;5.60;;;;;;;;;;5014549;28;20029;-75
2022/07/05 04:36:41;;;;;;;7.40;5.65;;;;;;;;;;5014173;28;20129;-76
2022/07/05 04:39:08;;;;;;;10.27;5.03;;;;;;;;;;5014244;28;20030;-76
2022/07/05 04:41:34;;;;;;;8.23;5.72;;;;;;;;;;5014243;28;20030;-76
2022/07/05 04:44:00;;;;;;;9.30;5.20;;;;;;;;;;5014248;28;20112;-76
2022/07/05 04:46:26;;;;;;;7.55;5.40;;;;;;;;;;5013834;28;20056;-76
2022/07/05 04:48:52;;;;;;;6.38;5.22;;;;;;;;;;5016691;28;20021;-76
2022/07/05 04:51:18;;;;;;;9.52;5.97;;;;;;;;;;4994277;28;20481;-76
2022/07/05 04:53:44;;;;;;;10.57;6.20;;;;;;;;;;4994590;28;20034;-76
2022/07/05 04:56:10;;;;;;;7.82;5.45;;;;;;;;;;4992871;28;20034;-75
2022/07/05 04:58:37;;;;;;;10.77;6.35;;;;;;;;;;4994807;28;20089;-76
2022/07/05 05:01:03;;;;;;;8.35;5.72;;;;;;;;;;5004696;28;20030;-76
2022/07/05 05:03:29;;;;;;;9.52;5.63;;;;;;;;;;5004308;28;20053;-76
2022/07/05 05:05:55;;;;;;;9.00;5.22;;;;;;;;;;5003575;28;20030;-76
2022/07/05 05:08:21;;;;;;;7.35;5.68;;;;;;;;;;5002340;28;20050;-76
2022/07/05 05:10:47;;;;;;;9.48;5.57;;;;;;;;;;5004223;28;20373;-76
2022/07/05 05:13:13;;;;;;;10.60;5.95;;;;;;;;;;5003540;28;20523;-76
2022/07/05 05:15:39;;;;;;;11.90;5.90;;;;;;;;;;5002518;28;20037;-76
2022/07/05 05:18:05;;;;;;;14.82;5.72;;;;;;;;;;5004348;28;20022;-75
2022/07/05 05:20:31;;;;;;;13.20;6.22;;;;;;;;;;5002706;28;20030;-75
2022/07/05 05:22:57;;;;;;;12.60;6.40;;;;;;;;;;5002903;28;20025;-75
2022/07/05 05:25:23;;;;;;;12.48;6.22;;;;;;;;;;5004088;28;20026;-76
2022/07/05 05:27:50;;;;;;;9.63;6.63;;;;;;;;;;5008073;28;20050;-75
2022/07/05 05:30:19;;;;;;;14.82;6.65;;;;;;;;;;5012927;28;20025;-74
2022/07/05 05:32:46;;;;;;;8.82;6.20;;;;;;;;;;5013089;28;20029;-74
2022/07/05 05:35:12;;;;;;;10.75;7.03;;;;;;;;;;5010399;28;20035;-74
2022/07/05 05:37:48;;;;;;;10.00;6.00;;;;;;;;;;5013268;28;20076;-74
2022/07/05 05:40:14;;;;;;;11.15;6.22;;;;;;;;;;5012982;28;20037;-74
2022/07/05 05:42:40;;;;;;;12.30;6.72;;;;;;;;;;5013051;28;20477;-74
2022/07/05 05:45:06;;;;;;;9.90;6.85;;;;;;;;;;5012788;28;20029;-74
2022/07/05 05:47:32;;;;;;;11.07;6.40;;;;;;;;;;5013092;28;20022;-74
2022/07/05 05:49:58;;;;;;;13.57;6.97;;;;;;;;;;5026416;28;20033;-74
2022/07/05 05:52:24;;;;;;;16.17;7.55;;;;;;;;;;5032684;28;20461;-74
2022/07/05 05:54:50;;;;;;;14.18;7.60;;;;;;;;;;5032496;28;20456;-74
2022/07/05 05:57:16;;;;;;;12.80;8.10;;;;;;;;;;5032528;28;20048;-74
2022/07/05 05:59:42;;;;;;;16.30;8.20;;;;;;;;;;5032440;28;20033;-74
2022/07/05 06:02:08;;;;;;;17.40;8.27;;;;;;;;;;5032487;28;20029;-74
2022/07/05 06:04:34;;;;;;;10.15;8.02;;;;;;;;;;5031916;28;20522;-74
2022/07/05 06:07:00;;;;;;;16.65;8.38;;;;;;;;;;5032256;28;20049;-74
2022/07/05 06:09:26;;;;;;;11.25;8.30;;;;;;;;;;5032326;28;20030;-74
2022/07/05 06:11:52;;;;;;;12.20;7.45;;;;;;;;;;5032289;28;20036;-75
2022/07/05 06:14:18;;;;;;;10.32;7.32;;;;;;;;;;5032257;28;20067;-74
2022/07/05 06:16:44;;;;;;;12.25;7.70;;;;;;;;;;5029841;28;20472;-74
2022/07/05 06:19:10;;;;;;;11.10;7.90;;;;;;;;;;5000381;28;20036;-74
2022/07/05 06:21:36;;;;;;;13.25;7.85;;;;;;;;;;5003137;28;20040;-75
2022/07/05 06:24:02;;;;;;;13.35;8.18;;;;;;;;;;5001717;28;20030;-75
2022/07/05 06:26:29;;;;;;;14.07;8.07;;;;;;;;;;5001817;28;20026;-74
2022/07/05 06:28:55;;;;;;;15.38;9.05;;;;;;;;;;5003033;28;20054;-74
2022/07/05 06:31:21;;;;;;;15.30;8.52;;;;;;;;;;5000838;28;20038;-74
2022/07/05 06:33:47;;;;;;;12.90;9.10;;;;;;;;;;5003668;28;20037;-75
2022/07/05 06:36:13;;;;;;;13.68;8.90;;;;;;;;;;5001083;28;20026;-74
2022/07/05 06:38:39;;;;;;;16.80;8.02;;;;;;;;;;5003012;28;20496;-74
2022/07/05 06:41:05;;;;;;;12.20;8.13;;;;;;;;;;5001777;28;20034;-74
2022/07/05 06:43:31;;;;;;;14.52;7.70;;;;;;;;;;5001503;28;20076;-74
2022/07/05 06:45:57;;;;;;;15.25;7.70;;;;;;;;;;5002831;28;20026;-74
2022/07/05 06:48:23;;;;;;;11.25;7.93;;;;;;;;;;5002469;28;20782;-74
2022/07/05 06:50:49;;;;;;;10.98;8.27;;;;;;;;;;5001480;28;20030;-75
2022/07/05 06:53:15;;;;;;;16.45;7.80;;;;;;;;;;5000499;28;20022;-75
2022/07/05 06:55:44;;;;;;;12.77;8.13;;;;;;;;;;5002417;28;20022;-74
2022/07/05 06:58:11;;;;;;;13.65;9.05;;;;;;;;;;5002178;28;20414;-74
2022/07/05 07:00:37;;;;;;;13.85;7.72;;;;;;;;;;5002335;28;20096;-76
2022/07/05 07:03:13;;;;;;;8.25;5.63;;;;;;;;;;5002413;28;20365;-76
2022/07/05 07:05:39;;;;;;;9.20;4.63;;;;;;;;;;5007936;28;20037;-76
2022/07/05 07:10:50;;;;;;;9.27;4.85;;;;;;;;;;5000880;28;20384;-75
2022/07/05 07:13:16;;;;;;;4.63;2.30;;;;;;;;;;5001669;28;20053;-75
2022/07/05 07:15:42;;;;;;;6.35;4.40;;;;;;;;;;5002289;28;20724;-75
2022/07/05 07:18:08;;;;;;;7.72;4.30;;;;;;;;;;5001296;28;20026;-75
2022/07/05 07:20:34;;;;;;;8.60;4.90;;;;;;;;;;5001220;28;20045;-75
2022/07/05 07:23:00;;;;;;;9.10;5.00;;;;;;;;;;5001047;28;20022;-75
2022/07/05 07:25:26;;;;;;;11.20;4.65;;;;;;;;;;5002246;28;20033;-75
2022/07/05 07:27:54;;;;;;;9.88;5.40;;;;;;;;;;5004312;28;20046;-75
2022/07/05 07:30:24;;;;;;;10.70;5.18;;;;;;;;;;5001538;28;20022;-75
2022/07/05 07:32:50;;;;;;;8.70;5.25;;;;;;;;;;5001914;28;20028;-74
2022/07/05 07:35:16;;;;;;;7.88;4.25;;;;;;;;;;5001511;28;20409;-74
2022/07/05 07:37:43;;;;;;;8.18;4.22;;;;;;;;;;4999029;28;20384;-75
2022/07/05 07:40:09;;;;;;;6.95;3.97;;;;;;;;;;5001505;28;20510;-74
2022/07/05 07:42:35;;;;;;;4.85;3.55;;;;;;;;;;5001504;28;20017;-74
2022/07/05 07:45:03;;;;;;;7.15;4.20;;;;;;;;;;5002090;28;20357;-74
2022/07/05 07:47:29;;;;;;;5.65;3.88;;;;;;;;;;5004251;28;20052;-74
2022/07/05 07:49:55;;;;;;;9.27;3.42;;;;;;;;;;5004909;28;20026;-74
2022/07/05 07:52:22;;;;;;;5.45;3.05;;;;;;;;;;5003309;28;20144;-74
2022/07/05 07:54:48;;;;;;;5.40;2.60;;;;;;;;;;5005982;28;20072;-74
2022/07/05 07:57:14;;;;;;;6.53;2.90;;;;;;;;;;4995552;28;20027;-74
2022/07/05 07:59:40;;;;;;;7.28;2.83;;;;;;;;;;4995532;28;20473;-77
2022/07/05 08:02:06;;;;;;;4.75;2.50;;;;;;;;;;5008925;28;20061;-76
2022/07/05 08:04:33;;;;;;;8.13;3.03;;;;;;;;;;5032028;28;20094;-75
2022/07/05 08:06:59;;;;;;;5.38;3.53;;;;;;;;;;5009202;28;20037;-75
2022/07/05 08:09:25;;;;;;;4.82;2.90;;;;;;;;;;5003659;28;20015;-75
2022/07/05 08:11:51;;;;;;;7.18;2.90;;;;;;;;;;5004552;28;20544;-75
2022/07/05 08:14:18;;;;;;;4.72;3.30;;;;;;;;;;5003182;28;20101;-75
2022/07/05 08:16:46;;;;;;;5.78;3.40;;;;;;;;;;5020377;28;20033;-75
2022/07/05 08:21:56;;;;;;;5.30;3.03;;;;;;;;;;5014682;28;20057;-75
2022/07/05 08:24:23;;;;;;;9.52;4.00;;;;;;;;;;5014917;28;20464;-74
2022/07/05 08:26:48;;;;;;;7.10;3.58;;;;;;;;;;4995773;28;20464;-77
2022/07/05 08:29:15;;;;;;;8.90;3.28;;;;;;;;;;4995161;28;20057;-77
2022/07/05 08:31:45;;;;;;;10.30;3.50;;;;;;;;;;4994976;28;20022;-77
2022/07/05 08:34:12;;;;;;;5.43;3.53;;;;;;;;;;4995133;28;20449;-77
2022/07/05 08:36:39;;;;;;;10.38;4.32;;;;;;;;;;4994770;28;20042;-77
2022/07/05 08:39:05;;;;;;;7.78;3.58;;;;;;;;;;4994846;28;20019;-75
2022/07/05 08:41:34;;;;;;;4.95;3.20;;;;;;;;;;4994844;28;20027;-76
2022/07/05 08:44:02;;;;;;;9.77;3.13;;;;;;;;;;5008328;28;20026;-76
2022/07/05 08:46:30;;;;;;;5.60;3.60;;;;;;;;;;5007540;28;20027;-76
2022/07/05 08:48:58;;;;;;;7.45;3.70;;;;;;;;;;5005730;28;20026;-76
2022/07/05 08:51:25;;;;;;;6.18;3.00;;;;;;;;;;5013907;28;20030;-76
2022/07/05 08:53:52;;;;;;;6.43;2.95;;;;;;;;;;5012006;28;20026;-76
2022/07/05 08:56:18;;;;;;;10.23;3.10;;;;;;;;;;4994744;28;20031;-76
2022/07/05 08:58:45;;;;;;;5.35;3.20;;;;;;;;;;4994424;28;20042;-76
2022/07/05 09:01:12;;;;;;;6.72;3.20;;;;;;;;;;5001731;28;20038;-76
2022/07/05 09:03:47;;;;;;;5.68;3.60;;;;;;;;;;5006439;28;20042;-76
2022/07/05 09:06:20;;;;;;;4.65;2.65;;;;;;;;;;5035639;28;20033;-76
2022/07/05 09:08:47;;;;;;;4.10;2.40;;;;;;;;;;5035516;28;20025;-77
2022/07/05 09:11:14;;;;;;;4.93;2.35;;;;;;;;;;5029352;28;20082;-76
2022/07/05 09:13:41;;;;;;;2.92;2.03;;;;;;;;;;5007550;28;20033;-75
2022/07/05 09:16:08;;;;;;;4.55;2.67;;;;;;;;;;5013638;28;20148;-76
2022/07/05 09:18:41;;;;;;;4.57;2.30;;;;;;;;;;5013992;28;20037;-76
2022/07/05 09:21:16;;;;;;;3.75;1.95;;;;;;;;;;5014276;28;20030;-76
2022/07/05 09:23:42;;;;;;;3.45;2.30;;;;;;;;;;5022590;28;20022;-75
2022/07/05 09:26:09;;;;;;;4.63;2.45;;;;;;;;;;5033451;28;20114;-77
2022/07/05 09:28:35;;;;;;;5.68;1.90;;;;;;;;;;5033320;28;20050;-77
2022/07/05 09:31:01;;;;;;;3.80;2.08;;;;;;;;;;5032838;28;20464;-77
2022/07/05 09:33:27;;;;;;;2.92;1.95;;;;;;;;;;5033101;28;20036;-77
2022/07/05 09:35:57;;;;;;;4.68;2.10;;;;;;;;;;5033349;28;20029;-77
2022/07/05 09:38:24;;;;;;;7.47;2.22;;;;;;;;;;5033224;28;20082;-77
2022/07/05 09:40:51;;;;;;;7.22;2.30;;;;;;;;;;5031725;28;20087;-75
2022/07/05 09:43:23;;;;;;;4.40;2.10;;;;;;;;;;5033240;28;20034;-76
2022/07/05 09:45:53;;;;;;;4.18;1.90;;;;;;;;;;5020544;28;20030;-77
2022/07/05 09:48:19;;;;;;;5.50;1.95;;;;;;;;;;5013327;28;20080;-77
2022/07/05 09:50:45;;;;;;;5.15;2.03;;;;;;;;;;5013102;28;20018;-77
2022/07/05 09:53:12;;;;;;;2.50;1.50;;;;;;;;;;5013510;28;20114;-77
2022/07/05 09:55:38;;;;;;;5.55;1.80;;;;;;;;;;5013373;28;20472;-77
2022/07/05 09:58:04;;;;;;;5.28;1.65;;;;;;;;;;5011417;28;20376;-77
2022/07/05 10:00:30;;;;;;;2.13;1.83;;;;;;;;;;5012864;28;20083;-77
2022/07/05 10:03:01;;;;;;;2.33;1.30;;;;;;;;;;5011638;28;20029;-77
2022/07/05 10:05:27;;;;;;;2.15;1.15;;;;;;;;;;5012549;28;20031;-76
2022/07/05 10:07:54;;;;;;;2.80;1.30;;;;;;;;;;5009149;28;20030;-77
2022/07/05 10:10:20;;;;;;;4.47;1.50;;;;;;;;;;5012768;28;20026;-76
2022/07/05 10:12:48;;;;;;;3.92;1.30;;;;;;;;;;5012697;28;20021;-76
2022/07/05 10:15:15;;;;;;;2.50;1.13;;;;;;;;;;5008564;28;20508;-76
2022/07/05 10:17:42;;;;;;;6.72;2.00;;;;;;;;;;5001982;28;20026;-76
2022/07/05 10:20:18;;;;;;;6.47;1.17;;;;;;;;;;5002249;28;20029;-76
2022/07/05 10:22:44;;;;;;;3.10;1.33;;;;;;;;;;5006921;28;20046;-76
2022/07/05 10:25:10;;;;;;;5.15;1.40;;;;;;;;;;5029689;28;20152;-76
2022/07/05 10:27:46;;;;;;;3.05;1.10;;;;;;;;;;5018744;28;20050;-75
2022/07/05 10:30:13;;;;;;;2.08;1.05;;;;;;;;;;5010587;28;20034;-75
2022/07/05 10:32:40;;;;;;;4.00;1.80;;;;;;;;;;5010959;28;20100;-75
2022/07/05 10:35:09;;;;;;;7.85;2.22;;;;;;;;;;5011117;28;20026;-75
2022/07/05 10:37:35;;;;;;;3.22;1.15;;;;;;;;;;5010790;28;20030;-75
2022/07/05 10:40:06;;;;;;;4.88;1.20;;;;;;;;;;5010672;28;20030;-74
2022/07/05 10:42:39;;;;;;;8.65;1.23;;;;;;;;;;5011155;28;20026;-74
2022/07/05 10:45:24;;;;;;;2.92;0.95;;;;;;;;;;5010721;28;20026;-74
2022/07/05 10:48:09;;;;;;;4.47;1.10;;;;;;;;;;5027445;28;20040;-74
2022/07/05 10:50:55;;;;;;;4.68;1.10;;;;;;;;;;5026944;28;20026;-75
2022/07/05 10:53:32;;;;;;;3.50;0.90;;;;;;;;;;5027486;28;20084;-75
2022/07/05 10:56:01;;;;;;;4.70;0.80;;;;;;;;;;5027082;28;20403;-74
2022/07/05 10:58:43;;;;;;;2.78;1.55;;;;;;;;;;5027321;28;20022;-74
2022/07/05 11:01:21;;;;;;;2.15;1.00;;;;;;;;;;5027058;28;20050;-75
2022/07/05 11:03:55;;;;;;;2.95;0.88;;;;;;;;;;5030720;28;20075;-74
2022/07/05 11:06:21;;;;;;;3.97;1.10;;;;;;;;;;5019591;28;20034;-75
2022/07/05 11:09:00;;;;;;;3.35;1.10;;;;;;;;;;5019367;28;20014;-74
2022/07/05 11:11:32;;;;;;;6.40;0.75;;;;;;;;;;5012853;28;20038;-74
2022/07/05 11:13:59;;;;;;;;;;;;;;;;;;5032977;28;20028;-74
2022/07/05 11:16:25;;;;;;;1.67;0.90;;;;;;;;;;5016832;28;19910;-75
2022/07/05 11:19:12;;;;;;;2.90;1.00;;;;;;;;;;5007132;28;20037;-74
2022/07/05 11:21:40;;;;;;;5.65;0.88;;;;;;;;;;5007414;28;20430;-74
2022/07/05 11:24:28;;;;;;;5.20;0.80;;;;;;;;;;4998960;28;20031;-75
2022/07/05 11:27:00;;;;;;;3.60;0.60;;;;;;;;;;5010833;28;20041;-74
2022/07/05 11:29:44;;;;;;;7.95;0.80;;;;;;;;;;5010882;28;20058;-77
2022/07/05 11:32:20;;;;;;;4.57;0.70;;;;;;;;;;5010905;28;20026;-76
2022/07/05 11:34:54;;;;;;;6.07;0.80;;;;;;;;;;5010448;28;20035;-75
2022/07/05 11:37:28;;;;;;;3.72;0.70;;;;;;;;;;5010912;28;20106;-76
2022/07/05 11:40:06;;;;;;;3.92;0.80;;;;;;;;;;4995966;28;20053;-76
2022/07/05 11:42:37;;;;;;;1.83;0.60;;;;;;;;;;4995346;28;20031;-77
2022/07/05 11:45:03;;;;;;;2.90;0.63;;;;;;;;;;5016624;28;20030;-77
2022/07/05 11:47:29;;;;;;;3.63;0.75;;;;;;;;;;5015545;28;20095;-77
2022/07/05 11:49:59;;;;;;;1.77;0.52;;;;;;;;;;5015234;28;20388;-77
2022/07/05 11:52:32;;;;;;;1.50;0.50;;;;;;;;;;5015430;28;20168;-78
2022/07/05 11:54:59;;;;;;;5.53;0.77;;;;;;;;;;5015295;28;20022;-77
2022/07/05 11:57:25;;;;;;;6.57;0.80;;;;;;;;;;5015222;28;20022;-77
2022/07/05 11:59:51;;;;;;;4.65;0.60;;;;;;;;;;5015102;28;20034;-77
2022/07/05 12:02:18;;;;;;;6.13;0.70;;;;;;;;;;5016052;28;20038;-76
2022/07/05 12:04:47;;;;;;;4.75;0.75;;;;;;;;;;5034218;28;20082;-77
2022/07/05 12:07:24;;;;;;;3.80;1.08;;;;;;;;;;5034261;28;20026;-76
2022/07/05 12:12:52;;;;;;;6.05;1.20;;;;;;;;;;5035259;28;20458;-76
2022/07/05 12:15:20;;;;;;;4.28;0.80;;;;;;;;;;5009808;28;20057;-76
2022/07/05 12:17:55;;;;;;;4.32;1.13;;;;;;;;;;5012402;28;20437;-76
2022/07/05 12:20:22;;;;;;;3.83;0.70;;;;;;;;;;5021030;28;20475;-76
2022/07/05 12:22:49;;;;;;;5.78;1.00;;;;;;;;;;5007548;28;20022;-76
2022/07/05 12:25:19;;;;;;;2.40;0.60;;;;;;;;;;5012438;28;20143;-76
2022/07/05 12:27:47;;;;;;;3.20;0.80;;;;;;;;;;5012692;28;20048;-76
2022/07/05 12:30:17;;;;;;;4.95;1.52;;;;;;;;;;5005666;28;20022;-77
2022/07/05 12:32:57;;;;;;;4.07;0.90;;;;;;;;;;5000887;28;20137;-76
2022/07/05 12:35:29;;;;;;;6.72;0.75;;;;;;;;;;5003294;28;20057;-76
2022/07/05 12:37:56;;;;;;;3.13;1.17;;;;;;;;;;5002555;28;20023;-76
2022/07/05 12:40:23;;;;;;;3.35;0.70;;;;;;;;;;5020892;28;20145;-77
2022/07/05 12:43:00;;;;;;;2.35;0.73;;;;;;;;;;5002072;28;20037;-76
2022/07/05 12:45:26;;;;;;;2.28;0.70;;;;;;;;;;5001861;28;20105;-76
2022/07/05 12:47:53;;;;;;;2.17;0.80;;;;;;;;;;5006270;28;20022;-76
2022/07/05 12:50:24;;;;;;;3.75;0.77;;;;;;;;;;4993115;28;20109;-76
2022/07/05 12:58:56;;;;;;;7.50;1.70;;;;;;;;;;4994676;28;20073;-75
2022/07/05 13:01:29;;;;;;;1.70;0.63;;;;;;;;;;4992789;28;20030;-75
2022/07/05 13:03:59;;;;;;;3.75;0.57;;;;;;;;;;4994928;28;20444;-76
2022/07/05 13:06:44;;;;;;;5.60;0.65;;;;;;;;;;5031960;28;20048;-76
2022/07/05 13:09:11;;;;;;;1.45;0.50;;;;;;;;;;5032013;28;20017;-76
2022/07/05 13:11:37;;;;;;;4.15;0.60;;;;;;;;;;5033583;28;20036;-77
2022/07/05 13:14:03;;;;;;;1.38;0.50;;;;;;;;;;5033591;28;20079;-77
2022/07/05 13:16:29;;;;;;;2.67;0.60;;;;;;;;;;5033409;28;20087;-76
2022/07/05 13:18:55;;;;;;;1.45;0.55;;;;;;;;;;5018688;28;20030;-74
2022/07/05 13:21:21;;;;;;;7.45;0.98;;;;;;;;;;5022689;28;20026;-74
2022/07/05 13:23:47;;;;;;;3.55;0.60;;;;;;;;;;5026487;28;20053;-74
2022/07/05 13:26:16;;;;;;;1.60;0.45;;;;;;;;;;5016182;28;20026;-74
2022/07/05 13:28:42;;;;;;;3.72;0.50;;;;;;;;;;5007881;28;20050;-74
2022/07/05 13:31:11;;;;;;;4.32;0.70;;;;;;;;;;5015864;28;20474;-74
2022/07/05 13:33:37;;;;;;;1.65;0.60;;;;;;;;;;5012633;28;20068;-73
2022/07/05 13:36:09;;;;;;;3.35;0.73;;;;;;;;;;5011957;28;20459;-74
2022/07/05 13:38:35;;;;;;;2.53;0.50;;;;;;;;;;5011095;28;20030;-75
2022/07/05 13:41:01;;;;;;;3.33;0.75;;;;;;;;;;5012414;28;20033;-74
2022/07/05 13:43:27;;;;;;;3.90;0.50;;;;;;;;;;5010244;28;20030;-74
2022/07/05 13:45:53;;;;;;;2.33;0.40;;;;;;;;;;5010346;28;20395;-74
2022/07/05 13:48:19;;;;;;;1.85;0.50;;;;;;;;;;5005943;28;20079;-74
2022/07/05 13:50:45;;;;;;;4.00;0.50;;;;;;;;;;5023983;28;20057;-74
2022/07/05 13:53:11;;;;;;;1.75;0.63;;;;;;;;;;5005997;28;20025;-74
2022/07/05 13:55:37;;;;;;;2.20;0.50;;;;;;;;;;5017807;28;20034;-73
2022/07/05 13:58:04;;;;;;;0.90;0.38;;;;;;;;;;5013289;28;20025;-74
2022/07/05 14:00:33;;;;;;;3.28;0.50;;;;;;;;;;5009989;28;20033;-74
2022/07/05 14:02:59;;;;;;;3.88;0.60;;;;;;;;;;5024439;28;20034;-74
2022/07/05 14:05:25;;;;;;;4.15;0.77;;;;;;;;;;5009971;28;20025;-74
2022/07/05 14:07:51;;;;;;;0.70;0.40;;;;;;;;;;5019441;28;20054;-74
2022/07/05 14:10:17;;;;;;;5.45;0.60;;;;;;;;;;5019052;28;20037;-74
2022/07/05 14:12:44;;;;;;;3.22;0.80;;;;;;;;;;5021887;28;20049;-74
2022/07/05 14:15:10;;;;;;;2.90;0.88;;;;;;;;;;5020975;28;20022;-74
2022/07/05 14:17:39;;;;;;;5.45;0.55;;;;;;;;;;5017520;28;20042;-74
2022/07/05 14:20:05;;;;;;;6.20;0.52;;;;;;;;;;5018020;28;20030;-74
2022/07/05 14:22:32;;;;;;;1.27;0.40;;;;;;;;;;5009770;28;20083;-73
2022/07/05 14:24:58;;;;;;;1.17;0.47;;;;;;;;;;5018840;28;20022;-74
2022/07/05 14:27:24;;;;;;;1.45;0.50;;;;;;;;;;5010564;28;20022;-74
2022/07/05 14:29:53;;;;;;;5.00;0.70;;;;;;;;;;5010592;28;20061;-74
2022/07/05 14:32:19;;;;;;;3.03;0.50;;;;;;;;;;5012802;28;20060;-74
2022/07/05 14:34:45;;;;;;;3.05;0.40;;;;;;;;;;5014899;28;20411;-74
2022/07/05 14:37:11;;;;;;;1.67;0.40;;;;;;;;;;5013409;28;20036;-73
2022/07/05 14:39:37;;;;;;;1.70;0.60;;;;;;;;;;5003541;28;20058;-73
2022/07/05 14:42:04;;;;;;;2.03;0.50;;;;;;;;;;5006623;28;20033;-75
2022/07/05 14:44:31;;;;;;;1.58;0.43;;;;;;;;;;5014446;28;20034;-75
2022/07/05 14:46:57;;;;;;;2.63;0.55;;;;;;;;;;5010411;28;20125;-73
2022/07/05 14:49:23;;;;;;;6.07;0.50;;;;;;;;;;5013738;28;20080;-76
2022/07/05 14:51:52;;;;;;;1.48;0.47;;;;;;;;;;5008262;28;20042;-77
2022/07/05 14:54:18;;;;;;;1.20;0.40;;;;;;;;;;5004766;28;20036;-77
2022/07/05 14:56:44;;;;;;;3.00;0.70;;;;;;;;;;5025854;28;20026;-75